Terminal Aerodrome Forecast
Issued by NWS

Home | Current Version | Previous Version | Text Only | Print | Product List | Glossary On
Versions: 1 2 3 4 5 6 7 8 9 10 11 12 13 14 15 16 17 18 19 20 21 22 23 24 25 26 27 28 29 30 31 32
000
FTUS45 KREV 201723
TAFCXP
TAF
KCXP 201723Z 2018/2118 08009KT 1SM -SN OVC010 WS010/20025KT
     FM201900 08009KT 3SM -SHSN SCT005 OVC015 WS010/20025KT
     FM202100 20010G20KT P6SM VCSH SCT025 BKN040
     FM210500 24009KT P6SM VCSH FEW030 BKN060=

USA.gov is the U.S. government's official web portal to all federal, state and local government web resources and services.